createdAt,value
2019-04-06T00:00:25.149Z,0.00
2019-04-06T00:01:25.151Z,0.00
2019-04-06T00:02:25.182Z,0.00
2019-04-06T00:03:25.120Z,0.00
2019-04-06T00:04:25.125Z,0.00
2019-04-06T00:05:25.101Z,0.00
2019-04-06T00:06:25.099Z,0.00
2019-04-06T00:07:25.098Z,0.00
2019-04-06T00:08:25.069Z,0.00
2019-04-06T00:09:25.110Z,0.00
2019-04-06T00:10:25.046Z,0.00
2019-04-06T00:11:25.037Z,0.00
2019-04-06T00:12:25.030Z,0.00
2019-04-06T00:13:25.029Z,0.00
2019-04-06T00:14:25.007Z,0.00
2019-04-06T00:15:24.987Z,0.00
2019-04-06T00:16:24.989Z,0.00
2019-04-06T00:17:24.972Z,0.00
2019-04-06T00:18:24.960Z,0.00
2019-04-06T00:19:32.737Z,0.00
2019-04-06T00:20:24.949Z,0.00
2019-04-06T00:21:24.940Z,0.00
2019-04-06T00:22:24.926Z,0.00
2019-04-06T00:23:24.910Z,0.00
2019-04-06T00:24:24.900Z,0.00
2019-04-06T00:25:24.886Z,0.00
2019-04-06T00:26:24.881Z,0.00
2019-04-06T00:27:24.865Z,0.00
2019-04-06T00:28:24.861Z,0.00
2019-04-06T00:29:24.844Z,0.00
2019-04-06T00:30:24.834Z,0.00
2019-04-06T00:31:24.824Z,0.00
2019-04-06T00:32:24.821Z,0.00
2019-04-06T00:33:24.799Z,0.00
2019-04-06T00:34:24.783Z,0.00
2019-04-06T00:35:24.777Z,0.00
2019-04-06T00:36:24.762Z,0.00
2019-04-06T00:37:24.751Z,0.00
2019-04-06T00:38:24.749Z,0.00
2019-04-06T00:39:24.730Z,0.00
2019-04-06T00:40:24.742Z,0.00
2019-04-06T00:41:24.708Z,0.00
2019-04-06T00:42:24.738Z,0.00
2019-04-06T00:43:24.705Z,0.00
2019-04-06T00:44:24.681Z,0.00
2019-04-06T00:45:24.722Z,0.00
2019-04-06T00:46:24.660Z,0.00
2019-04-06T00:47:24.665Z,0.00
2019-04-06T00:48:24.645Z,0.00
2019-04-06T00:49:24.627Z,0.00
2019-04-06T00:50:24.618Z,0.00
2019-04-06T00:51:24.611Z,0.00
2019-04-06T00:52:24.623Z,0.00
2019-04-06T00:53:24.586Z,0.00
2019-04-06T00:54:24.571Z,0.00
2019-04-06T00:55:24.558Z,0.00
2019-04-06T00:56:24.557Z,0.00
2019-04-06T00:57:24.542Z,0.00
2019-04-06T00:58:24.541Z,0.00
2019-04-06T00:59:24.517Z,0.00
2019-04-06T01:00:24.524Z,0.00
2019-04-06T01:01:24.497Z,0.00
2019-04-06T01:02:24.489Z,0.00
2019-04-06T01:03:24.477Z,0.00
2019-04-06T01:04:24.475Z,0.00
2019-04-06T01:05:24.502Z,0.00
2019-04-06T01:06:24.446Z,0.00
2019-04-06T01:07:24.436Z,0.00
2019-04-06T01:08:24.427Z,0.00
2019-04-06T01:09:24.419Z,0.00
2019-04-06T01:10:24.399Z,0.00
2019-04-06T01:11:24.396Z,0.00
2019-04-06T01:12:24.382Z,0.00
2019-04-06T01:13:24.375Z,0.00
2019-04-06T01:14:24.369Z,0.00
2019-04-06T01:15:24.344Z,0.00
2019-04-06T01:16:31.392Z,0.00
2019-04-06T01:17:32.306Z,0.00
2019-04-06T01:18:32.350Z,0.00
2019-04-06T01:19:31.885Z,0.00
2019-04-06T01:20:24.292Z,0.00
2019-04-06T01:21:24.295Z,0.00
2019-04-06T01:22:24.276Z,0.00
2019-04-06T01:23:24.269Z,0.00
2019-04-06T01:24:24.254Z,0.00
2019-04-06T01:25:24.327Z,0.00
2019-04-06T01:26:24.265Z,0.00
2019-04-06T01:27:24.215Z,0.00
2019-04-06T01:28:24.208Z,0.00
2019-04-06T01:29:24.195Z,0.00
2019-04-06T01:30:24.197Z,0.00
2019-04-06T01:31:24.177Z,0.00
2019-04-06T01:32:24.187Z,0.00
2019-04-06T01:33:24.157Z,0.00
2019-04-06T01:34:24.144Z,0.00
2019-04-06T01:35:24.133Z,0.00
2019-04-06T01:36:24.122Z,0.00
2019-04-06T01:37:24.115Z,0.00
2019-04-06T01:38:24.111Z,0.00
2019-04-06T01:39:24.094Z,0.00
2019-04-06T01:40:24.080Z,0.00
2019-04-06T01:41:24.078Z,0.00
2019-04-06T01:42:24.057Z,0.00
2019-04-06T01:43:24.060Z,0.00
2019-04-06T01:44:24.039Z,0.00
2019-04-06T01:45:24.029Z,0.00
2019-04-06T01:46:24.018Z,0.00
2019-04-06T01:47:24.008Z,0.00
2019-04-06T01:48:23.995Z,0.00
2019-04-06T01:49:23.988Z,0.00
2019-04-06T01:50:23.966Z,0.00
2019-04-06T01:51:23.965Z,0.00
2019-04-06T01:52:23.954Z,0.00
2019-04-06T01:53:23.959Z,0.00
2019-04-06T01:54:23.941Z,0.00
2019-04-06T01:55:23.962Z,0.00
2019-04-06T01:56:23.907Z,0.00
2019-04-06T01:57:23.898Z,0.00
2019-04-06T01:58:23.883Z,0.00
2019-04-06T01:59:23.897Z,0.00
2019-04-06T02:00:23.862Z,0.00
2019-04-06T02:01:23.848Z,0.00
2019-04-06T02:02:23.846Z,0.00
2019-04-06T02:03:23.827Z,0.00
2019-04-06T02:04:23.838Z,0.00
2019-04-06T02:05:23.809Z,0.00
2019-04-06T02:06:23.795Z,0.00
2019-04-06T02:07:23.916Z,0.00
2019-04-06T02:08:23.785Z,0.00
2019-04-06T02:09:23.780Z,0.00
2019-04-06T02:10:23.756Z,0.00
2019-04-06T02:11:23.744Z,0.00
2019-04-06T02:12:23.729Z,0.00
2019-04-06T02:13:23.726Z,0.00
2019-04-06T02:14:23.734Z,0.00
2019-04-06T02:15:23.704Z,0.00
2019-04-06T02:16:23.688Z,0.00
2019-04-06T02:17:23.683Z,0.00
2019-04-06T02:18:23.669Z,0.00
2019-04-06T02:19:23.661Z,0.00
2019-04-06T02:20:23.669Z,0.00
2019-04-06T02:21:23.638Z,0.00
2019-04-06T02:22:23.629Z,0.00
2019-04-06T02:23:23.618Z,0.00
2019-04-06T02:24:23.604Z,0.00
2019-04-06T02:25:23.607Z,0.00
2019-04-06T02:26:30.241Z,0.00
2019-04-06T02:27:24.576Z,0.00
2019-04-06T02:28:23.559Z,0.00
2019-04-06T02:29:23.557Z,0.00
2019-04-06T02:30:23.570Z,0.00
2019-04-06T02:31:23.537Z,0.00
2019-04-06T02:32:23.540Z,0.00
2019-04-06T02:33:23.518Z,0.00
2019-04-06T02:34:23.502Z,0.00
2019-04-06T02:35:23.617Z,0.00
2019-04-06T02:36:23.505Z,0.00
2019-04-06T02:37:23.477Z,0.00
2019-04-06T02:38:23.467Z,0.00
2019-04-06T02:39:23.453Z,0.00
2019-04-06T02:40:23.461Z,0.00
2019-04-06T02:41:23.440Z,0.00
2019-04-06T02:42:23.437Z,0.00
2019-04-06T02:43:23.402Z,0.00
2019-04-06T02:44:23.394Z,0.00
2019-04-06T02:45:23.387Z,0.00
2019-04-06T02:46:23.376Z,0.00
2019-04-06T02:47:23.393Z,0.00
2019-04-06T02:48:23.351Z,0.00
2019-04-06T02:49:23.346Z,0.00
2019-04-06T02:50:23.326Z,0.00
2019-04-06T02:51:23.329Z,0.00
2019-04-06T02:52:23.313Z,0.00
2019-04-06T02:53:23.404Z,0.00
2019-04-06T02:54:23.283Z,0.00
2019-04-06T02:55:23.279Z,0.00
2019-04-06T02:56:23.269Z,0.00
2019-04-06T02:57:23.260Z,0.00
2019-04-06T02:58:24.869Z,0.00
2019-04-06T02:59:23.241Z,0.00
2019-04-06T03:00:23.275Z,0.00
2019-04-06T03:01:23.211Z,0.00
2019-04-06T03:02:23.202Z,0.00
2019-04-06T03:03:23.193Z,0.00
2019-04-06T03:04:23.362Z,0.00
2019-04-06T03:05:23.166Z,0.00
2019-04-06T03:06:23.157Z,0.00
2019-04-06T03:07:23.229Z,0.00
2019-04-06T03:08:23.136Z,0.00
2019-04-06T03:09:23.147Z,0.00
2019-04-06T03:10:23.123Z,0.00
2019-04-06T03:11:23.346Z,0.00
2019-04-06T03:12:23.091Z,0.00
2019-04-06T03:13:23.086Z,0.00
2019-04-06T03:14:23.104Z,0.00
2019-04-06T03:15:23.164Z,0.00
2019-04-06T03:16:23.047Z,0.00
2019-04-06T03:17:23.044Z,0.00
2019-04-06T03:18:23.030Z,0.00
2019-04-06T03:19:23.066Z,0.00
2019-04-06T03:20:23.013Z,0.00
2019-04-06T03:21:22.995Z,0.00
2019-04-06T03:22:22.983Z,0.00
2019-04-06T03:23:24.930Z,0.00
2019-04-06T03:24:22.971Z,0.00
2019-04-06T03:25:22.990Z,0.00
2019-04-06T03:26:23.128Z,0.00
2019-04-06T03:27:23.206Z,0.00
2019-04-06T03:28:22.925Z,0.00
2019-04-06T03:29:22.914Z,0.00
2019-04-06T03:30:22.909Z,0.00
2019-04-06T03:31:27.066Z,0.00
2019-04-06T03:32:22.884Z,0.00
2019-04-06T03:33:22.868Z,0.00
2019-04-06T03:34:23.275Z,0.00
2019-04-06T03:35:22.844Z,0.00
2019-04-06T03:36:22.843Z,0.00
2019-04-06T03:37:22.889Z,0.00
2019-04-06T03:38:22.815Z,0.00
2019-04-06T03:39:22.811Z,0.00
2019-04-06T03:40:22.882Z,0.00
2019-04-06T03:41:22.906Z,0.00
2019-04-06T03:42:22.781Z,0.00
2019-04-06T03:43:22.786Z,0.00
2019-04-06T03:44:22.753Z,0.00
2019-04-06T03:45:22.769Z,0.00
2019-04-06T03:46:22.747Z,0.00
2019-04-06T03:47:22.736Z,0.00
2019-04-06T03:48:22.707Z,0.00
2019-04-06T03:49:22.767Z,0.00
2019-04-06T03:50:22.687Z,0.00
2019-04-06T03:51:22.679Z,0.00
2019-04-06T03:52:22.696Z,0.00
2019-04-06T03:53:22.663Z,0.00
2019-04-06T03:54:22.645Z,0.00
2019-04-06T03:55:22.636Z,0.00
2019-04-06T03:56:22.624Z,0.00
2019-04-06T03:57:22.627Z,0.00
2019-04-06T03:58:22.603Z,0.00
2019-04-06T03:59:22.596Z,0.00
2019-04-06T04:00:22.636Z,0.00
2019-04-06T04:01:22.570Z,0.00
2019-04-06T04:02:22.570Z,0.00
2019-04-06T04:03:22.592Z,0.00
2019-04-06T04:04:22.533Z,0.00
2019-04-06T04:05:22.932Z,0.00
2019-04-06T04:06:22.516Z,0.00
2019-04-06T04:07:22.551Z,0.00
2019-04-06T04:08:22.500Z,0.00
2019-04-06T04:09:22.485Z,0.00
2019-04-06T04:10:22.468Z,0.00
2019-04-06T04:11:22.463Z,0.00
2019-04-06T04:12:22.471Z,0.00
2019-04-06T04:13:22.449Z,0.00
2019-04-06T04:14:22.437Z,0.00
2019-04-06T04:15:22.548Z,0.00
2019-04-06T04:16:22.406Z,0.00
2019-04-06T04:17:22.888Z,0.00
2019-04-06T04:18:29.448Z,0.00
2019-04-06T04:19:29.979Z,0.00
2019-04-06T04:20:30.012Z,0.00
2019-04-06T04:21:30.049Z,0.00
2019-04-06T04:22:22.494Z,0.00
2019-04-06T04:23:22.363Z,0.00
2019-04-06T04:24:22.352Z,0.00
2019-04-06T04:25:22.519Z,0.00
2019-04-06T04:26:22.319Z,0.00
2019-04-06T04:27:29.626Z,0.00
2019-04-06T04:28:23.278Z,0.00
2019-04-06T04:29:22.396Z,0.00
2019-04-06T04:30:32.223Z,0.00
2019-04-06T04:31:23.249Z,0.00
2019-04-06T04:32:22.443Z,0.00
2019-04-06T04:33:22.229Z,0.00
2019-04-06T04:34:22.218Z,0.00
2019-04-06T04:35:22.248Z,0.00
2019-04-06T04:36:22.205Z,5.62
2019-04-06T04:37:22.220Z,5.62
2019-04-06T04:38:22.177Z,5.62
2019-04-06T04:39:22.349Z,5.62
2019-04-06T04:40:22.148Z,5.62
2019-04-06T04:41:22.169Z,5.62
2019-04-06T04:42:22.141Z,5.62
2019-04-06T04:43:22.335Z,5.62
2019-04-06T04:44:22.114Z,5.62
2019-04-06T04:45:22.100Z,5.62
2019-04-06T04:46:22.097Z,5.62
2019-04-06T04:47:22.217Z,5.62
2019-04-06T04:48:22.115Z,5.62
2019-04-06T04:49:22.076Z,5.62
2019-04-06T04:50:22.044Z,11.25
2019-04-06T04:51:22.031Z,11.25
2019-04-06T04:52:22.118Z,11.25
2019-04-06T04:53:22.030Z,11.25
2019-04-06T04:54:22.040Z,11.25
2019-04-06T04:55:22.001Z,11.25
2019-04-06T04:56:21.986Z,11.25
2019-04-06T04:57:21.975Z,11.25
2019-04-06T04:58:21.964Z,16.88
2019-04-06T04:59:22.033Z,16.88
2019-04-06T05:00:22.176Z,16.88
2019-04-06T05:01:21.973Z,16.88
2019-04-06T05:02:21.913Z,16.88
2019-04-06T05:03:21.961Z,16.88
2019-04-06T05:04:21.964Z,22.50
2019-04-06T05:05:21.883Z,22.50
2019-04-06T05:06:21.901Z,22.50
2019-04-06T05:07:21.877Z,22.50
2019-04-06T05:08:21.858Z,22.50
2019-04-06T05:09:21.843Z,28.12
2019-04-06T05:10:21.827Z,28.12
2019-04-06T05:11:22.007Z,28.12
2019-04-06T05:12:21.822Z,28.12
2019-04-06T05:13:21.805Z,33.75
2019-04-06T05:14:21.789Z,33.75
2019-04-06T05:15:21.779Z,33.75
2019-04-06T05:16:21.771Z,33.75
2019-04-06T05:17:21.771Z,33.75
2019-04-06T05:18:21.756Z,33.75
2019-04-06T05:19:21.748Z,33.75
2019-04-06T05:20:23.851Z,33.75
2019-04-06T05:21:21.716Z,39.38
2019-04-06T05:22:21.770Z,39.38
2019-04-06T05:23:21.697Z,39.38
2019-04-06T05:24:21.828Z,39.38
2019-04-06T05:25:21.959Z,45.00
2019-04-06T05:26:21.664Z,45.00
2019-04-06T05:27:21.654Z,45.00
2019-04-06T05:28:21.650Z,45.00
2019-04-06T05:29:21.627Z,50.62
2019-04-06T05:30:21.621Z,50.62
2019-04-06T05:31:21.609Z,50.62
2019-04-06T05:32:21.600Z,56.25
2019-04-06T05:33:21.601Z,56.25
2019-04-06T05:34:21.573Z,56.25
2019-04-06T05:35:21.748Z,56.25
2019-04-06T05:36:21.714Z,61.88
2019-04-06T05:37:21.546Z,61.88
2019-04-06T05:38:21.547Z,61.88
2019-04-06T05:39:21.530Z,67.50
2019-04-06T05:40:21.517Z,67.50
2019-04-06T05:41:21.499Z,67.50
2019-04-06T05:42:21.493Z,67.50
2019-04-06T05:43:21.482Z,67.50
2019-04-06T05:44:21.522Z,73.12
2019-04-06T05:45:21.461Z,73.12
2019-04-06T05:46:21.449Z,73.12
2019-04-06T05:47:21.437Z,73.12
2019-04-06T05:48:21.422Z,78.75
2019-04-06T05:49:21.418Z,78.75
2019-04-06T05:50:21.452Z,78.75
2019-04-06T05:51:21.400Z,84.38
2019-04-06T05:52:21.391Z,90.00
2019-04-06T05:53:21.380Z,90.00
2019-04-06T05:54:21.357Z,95.62
2019-04-06T05:55:21.507Z,101.25
2019-04-06T05:56:21.354Z,106.88
2019-04-06T05:57:21.329Z,106.88
2019-04-06T05:58:21.315Z,118.12
2019-04-06T05:59:21.496Z,123.75
2019-04-06T06:00:21.314Z,123.75
2019-04-06T06:01:21.298Z,129.38
2019-04-06T06:02:21.357Z,129.38
2019-04-06T06:03:21.410Z,129.38
2019-04-06T06:04:21.260Z,129.38
2019-04-06T06:05:21.282Z,129.38
2019-04-06T06:06:21.405Z,129.38
2019-04-06T06:07:21.468Z,129.38
2019-04-06T06:08:21.212Z,129.38
2019-04-06T06:09:21.201Z,135.00
2019-04-06T06:10:21.186Z,129.38
2019-04-06T06:11:21.192Z,129.38
2019-04-06T06:12:21.186Z,135.00
2019-04-06T06:13:21.159Z,129.38
2019-04-06T06:14:21.146Z,129.38
2019-04-06T06:15:21.132Z,135.00
2019-04-06T06:16:21.137Z,135.00
2019-04-06T06:17:21.119Z,135.00
2019-04-06T06:18:26.637Z,135.00
2019-04-06T06:20:30.872Z,135.00
2019-04-06T06:21:30.871Z,140.62
2019-04-06T06:22:30.852Z,135.00
2019-04-06T06:23:31.050Z,135.00
2019-04-06T06:24:30.824Z,135.00
2019-04-06T06:25:30.822Z,140.62
2019-04-06T06:26:30.807Z,140.62
2019-04-06T06:27:30.800Z,140.62
2019-04-06T06:28:30.780Z,140.62
2019-04-06T06:29:30.768Z,140.62
2019-04-06T06:30:30.829Z,140.62
2019-04-06T06:31:30.752Z,140.62
2019-04-06T06:32:31.389Z,146.25
2019-04-06T06:33:30.834Z,146.25
2019-04-06T06:34:30.720Z,140.62
2019-04-06T06:35:30.710Z,146.25
2019-04-06T06:36:30.708Z,146.25
2019-04-06T06:37:30.697Z,135.00
2019-04-06T06:38:30.678Z,129.38
2019-04-06T06:39:30.660Z,146.25
2019-04-06T06:40:30.655Z,151.88
2019-04-06T06:41:30.646Z,151.88
2019-04-06T06:42:30.657Z,157.50
2019-04-06T06:43:30.618Z,163.12
2019-04-06T06:44:30.615Z,163.12
2019-04-06T06:45:30.604Z,163.12
2019-04-06T06:46:30.590Z,163.12
2019-04-06T06:47:30.575Z,168.75
2019-04-06T06:48:30.714Z,163.12
2019-04-06T06:49:30.557Z,168.75
2019-04-06T06:50:30.551Z,168.75
2019-04-06T06:51:30.632Z,168.75
2019-04-06T06:52:30.521Z,174.38
2019-04-06T06:53:30.521Z,174.38
2019-04-06T06:54:30.500Z,180.00
2019-04-06T06:55:30.502Z,185.62
2019-04-06T06:56:30.490Z,185.62
2019-04-06T06:57:30.702Z,185.62
2019-04-06T06:58:30.479Z,185.62
2019-04-06T06:59:30.453Z,185.62
2019-04-06T07:00:30.434Z,185.62
2019-04-06T07:01:30.681Z,185.62
2019-04-06T07:02:30.608Z,191.25
2019-04-06T07:03:30.415Z,191.25
2019-04-06T07:04:30.435Z,196.88
2019-04-06T07:05:30.472Z,202.50
2019-04-06T07:06:30.376Z,202.50
2019-04-06T07:07:30.369Z,208.12
2019-04-06T07:08:30.432Z,208.12
2019-04-06T07:09:30.342Z,208.12
2019-04-06T07:10:30.340Z,208.12
2019-04-06T07:11:30.321Z,208.12
2019-04-06T07:12:30.305Z,208.12
2019-04-06T07:13:30.304Z,208.12
2019-04-06T07:14:30.558Z,213.75
2019-04-06T07:15:30.273Z,219.38
2019-04-06T07:16:30.263Z,219.38
2019-04-06T07:17:30.273Z,219.38
2019-04-06T07:18:30.242Z,225.00
2019-04-06T07:19:30.425Z,225.00
2019-04-06T07:20:30.416Z,230.62
2019-04-06T07:21:30.250Z,230.62
2019-04-06T07:22:30.203Z,236.25
2019-04-06T07:23:30.196Z,236.25
2019-04-06T07:24:30.182Z,241.88
2019-04-06T07:25:30.211Z,241.88
2019-04-06T07:26:30.208Z,241.88
2019-04-06T07:27:30.147Z,247.50
2019-04-06T07:28:37.455Z,247.50
2019-04-06T07:29:31.252Z,247.50
2019-04-06T07:30:30.265Z,247.50
2019-04-06T07:31:30.108Z,247.50
2019-04-06T07:32:30.301Z,247.50
2019-04-06T07:33:30.119Z,247.50
2019-04-06T07:34:30.082Z,253.12
2019-04-06T07:35:30.063Z,253.12
2019-04-06T07:36:30.088Z,253.12
2019-04-06T07:37:30.044Z,258.75
2019-04-06T07:38:30.024Z,258.75
2019-04-06T07:39:30.139Z,258.75
2019-04-06T07:40:30.004Z,264.38
2019-04-06T07:41:29.999Z,264.38
2019-04-06T07:42:29.999Z,264.38
2019-04-06T07:43:29.985Z,270.00
2019-04-06T07:44:30.215Z,270.00
2019-04-06T07:45:29.956Z,270.00
2019-04-06T07:46:29.953Z,275.62
2019-04-06T07:47:29.937Z,275.62
2019-04-06T07:48:29.919Z,275.62
2019-04-06T07:49:29.916Z,281.25
2019-04-06T07:50:30.020Z,281.25
2019-04-06T07:51:29.891Z,281.25
2019-04-06T07:52:29.893Z,281.25
2019-04-06T07:53:29.866Z,281.25
2019-04-06T07:54:29.856Z,281.25
2019-04-06T07:55:29.851Z,286.88
2019-04-06T07:56:29.994Z,286.88
2019-04-06T07:57:29.822Z,286.88
2019-04-06T07:58:29.819Z,286.88
2019-04-06T07:59:29.803Z,286.88
2019-04-06T08:00:29.795Z,292.50
2019-04-06T08:01:29.788Z,292.50
2019-04-06T08:02:29.774Z,292.50
2019-04-06T08:03:29.796Z,292.50
2019-04-06T08:04:29.753Z,292.50
2019-04-06T08:05:29.921Z,292.50
2019-04-06T08:06:29.725Z,298.12
2019-04-06T08:07:29.716Z,298.12
2019-04-06T08:08:29.709Z,298.12
2019-04-06T08:09:29.708Z,298.12
2019-04-06T08:10:29.686Z,303.75
2019-04-06T08:11:29.692Z,303.75
2019-04-06T08:12:29.666Z,303.75
2019-04-06T08:13:29.658Z,303.75
2019-04-06T08:14:29.642Z,303.75
2019-04-06T08:15:29.767Z,309.38
2019-04-06T08:16:29.620Z,309.38
2019-04-06T08:17:29.681Z,309.38
2019-04-06T08:18:29.605Z,309.38
2019-04-06T08:19:29.662Z,315.00
2019-04-06T08:20:29.594Z,315.00
2019-04-06T08:21:29.566Z,315.00
2019-04-06T08:22:29.556Z,320.62
2019-04-06T08:23:29.603Z,320.62
2019-04-06T08:24:29.541Z,320.62
2019-04-06T08:25:29.529Z,326.25
2019-04-06T08:26:29.517Z,326.25
2019-04-06T08:27:29.509Z,326.25
2019-04-06T08:28:29.500Z,326.25
2019-04-06T08:29:29.499Z,326.25
2019-04-06T08:30:29.623Z,331.88
2019-04-06T08:31:29.574Z,331.88
2019-04-06T08:32:29.451Z,331.88
2019-04-06T08:33:29.643Z,331.88
2019-04-06T08:34:29.450Z,331.88
2019-04-06T08:35:29.429Z,337.50
2019-04-06T08:36:29.424Z,337.50
2019-04-06T08:37:29.403Z,337.50
2019-04-06T08:38:29.398Z,337.50
2019-04-06T08:39:29.377Z,337.50
2019-04-06T08:40:29.382Z,337.50
2019-04-06T08:41:29.600Z,337.50
2019-04-06T08:42:29.351Z,337.50
2019-04-06T08:43:29.342Z,343.12
2019-04-06T08:44:29.324Z,343.12
2019-04-06T08:45:29.323Z,343.12
2019-04-06T08:46:29.335Z,348.75
2019-04-06T08:47:29.303Z,343.12
2019-04-06T08:48:29.288Z,343.12
2019-04-06T08:49:29.423Z,348.75
2019-04-06T08:50:29.272Z,348.75
2019-04-06T08:51:29.253Z,354.38
2019-04-06T08:52:29.254Z,354.38
2019-04-06T08:53:29.238Z,354.38
2019-04-06T08:54:29.321Z,354.38
2019-04-06T08:55:29.211Z,354.38
2019-04-06T08:56:29.216Z,360.00
2019-04-06T08:57:29.326Z,360.00
2019-04-06T08:58:29.179Z,354.38
2019-04-06T08:59:29.169Z,354.38
2019-04-06T09:00:29.162Z,360.00
2019-04-06T09:01:29.164Z,365.62
2019-04-06T09:02:29.181Z,365.62
2019-04-06T09:03:29.129Z,365.62
2019-04-06T09:04:29.131Z,371.25
2019-04-06T09:05:29.110Z,371.25
2019-04-06T09:06:29.097Z,365.62
2019-04-06T09:07:29.417Z,365.62
2019-04-06T09:08:29.081Z,371.25
2019-04-06T09:09:29.079Z,371.25
2019-04-06T09:10:29.067Z,371.25
2019-04-06T09:11:29.049Z,371.25
2019-04-06T09:12:29.092Z,365.62
2019-04-06T09:13:29.040Z,371.25
2019-04-06T09:14:29.027Z,365.62
2019-04-06T09:15:29.002Z,365.62
2019-04-06T09:16:28.992Z,365.62
2019-04-06T09:17:28.980Z,365.62
2019-04-06T09:18:29.196Z,365.62
2019-04-06T09:19:28.976Z,365.62
2019-04-06T09:20:29.197Z,365.62
2019-04-06T09:21:28.940Z,365.62
2019-04-06T09:22:28.934Z,365.62
2019-04-06T09:23:28.933Z,365.62
2019-04-06T09:24:29.115Z,365.62
2019-04-06T09:25:29.116Z,365.62
2019-04-06T09:26:28.895Z,365.62
2019-04-06T09:27:28.880Z,365.62
2019-04-06T09:28:28.873Z,365.62
2019-04-06T09:29:28.872Z,371.25
2019-04-06T09:30:28.847Z,371.25
2019-04-06T09:31:28.846Z,371.25
2019-04-06T09:32:28.944Z,371.25
2019-04-06T09:33:28.826Z,371.25
2019-04-06T09:34:30.989Z,371.25
2019-04-06T09:35:28.854Z,371.25
2019-04-06T09:36:28.791Z,371.25
2019-04-06T09:37:28.775Z,376.88
2019-04-06T09:38:28.771Z,376.88
2019-04-06T09:39:28.776Z,376.88
2019-04-06T09:40:28.969Z,376.88
2019-04-06T09:41:28.780Z,376.88
2019-04-06T09:42:28.730Z,376.88
2019-04-06T09:43:28.720Z,376.88
2019-04-06T09:44:28.711Z,382.50
2019-04-06T09:45:28.704Z,382.50
2019-04-06T09:46:28.715Z,382.50
2019-04-06T09:47:28.976Z,382.50
2019-04-06T09:48:28.669Z,382.50
2019-04-06T09:49:28.672Z,382.50
2019-04-06T09:50:29.898Z,388.12
2019-04-06T09:51:28.647Z,388.12
2019-04-06T09:52:29.127Z,388.12
2019-04-06T09:53:28.873Z,388.12
2019-04-06T09:54:28.603Z,388.12
2019-04-06T09:55:28.596Z,388.12
2019-04-06T09:56:28.593Z,393.75
2019-04-06T09:57:28.586Z,393.75
2019-04-06T09:58:28.752Z,393.75
2019-04-06T09:59:35.615Z,393.75
2019-04-06T10:00:29.550Z,393.75
2019-04-06T10:01:37.981Z,393.75
2019-04-06T10:02:30.121Z,393.75
2019-04-06T10:03:28.854Z,393.75
2019-04-06T10:04:28.557Z,393.75
2019-04-06T10:05:28.632Z,399.38
2019-04-06T10:06:28.491Z,399.38
2019-04-06T10:07:28.531Z,399.38
2019-04-06T10:08:28.468Z,393.75
2019-04-06T10:09:28.454Z,393.75
2019-04-06T10:10:28.456Z,393.75
2019-04-06T10:11:28.435Z,399.38
2019-04-06T10:12:28.423Z,399.38
2019-04-06T10:13:28.706Z,393.75
2019-04-06T10:14:28.412Z,399.38
2019-04-06T10:15:28.410Z,399.38
2019-04-06T10:16:28.395Z,399.38
2019-04-06T10:17:28.378Z,399.38
2019-04-06T10:18:28.368Z,399.38
2019-04-06T10:19:28.354Z,399.38
2019-04-06T10:20:28.530Z,405.00
2019-04-06T10:21:28.332Z,405.00
2019-04-06T10:22:28.447Z,410.62
2019-04-06T10:23:28.312Z,410.62
2019-04-06T10:24:28.450Z,410.62
2019-04-06T10:25:28.311Z,410.62
2019-04-06T10:26:28.322Z,410.62
2019-04-06T10:27:28.322Z,410.62
2019-04-06T10:28:28.269Z,416.25
2019-04-06T10:29:28.260Z,416.25
2019-04-06T10:30:28.273Z,416.25
2019-04-06T10:31:28.238Z,421.88
2019-04-06T10:32:28.227Z,421.88
2019-04-06T10:33:28.275Z,421.88
2019-04-06T10:34:28.206Z,421.88
2019-04-06T10:35:28.199Z,421.88
2019-04-06T10:36:28.192Z,427.50
2019-04-06T10:37:28.198Z,433.12
2019-04-06T10:38:28.355Z,433.12
2019-04-06T10:39:28.157Z,433.12
2019-04-06T10:40:28.149Z,438.75
2019-04-06T10:41:28.174Z,444.38
2019-04-06T10:42:29.464Z,444.38
2019-04-06T10:43:28.230Z,450.00
2019-04-06T10:44:28.126Z,450.00
2019-04-06T10:45:28.099Z,455.62
2019-04-06T10:46:28.092Z,466.88
2019-04-06T10:47:28.111Z,466.88
2019-04-06T10:48:28.077Z,472.50
2019-04-06T10:49:28.591Z,478.12
2019-04-06T10:50:28.403Z,483.75
2019-04-06T10:51:28.345Z,500.62
2019-04-06T10:52:28.029Z,511.88
2019-04-06T10:53:28.243Z,540.00
2019-04-06T10:54:28.010Z,585.00
2019-04-06T10:55:28.146Z,663.75
2019-04-06T10:56:27.982Z,781.88
2019-04-06T10:57:27.972Z,984.38
2019-04-06T10:58:27.962Z,1153.12
2019-04-06T10:59:27.968Z,1310.62
2019-04-06T11:00:27.948Z,1524.38
2019-04-06T11:01:27.954Z,1783.12
2019-04-06T11:02:27.927Z,1873.12
2019-04-06T11:03:27.917Z,2008.12
2019-04-06T11:04:27.919Z,2098.12
2019-04-06T11:05:27.896Z,2115.00
2019-04-06T11:06:27.889Z,2126.25
2019-04-06T11:07:27.896Z,1991.25
2019-04-06T11:08:27.957Z,1636.88
2019-04-06T11:09:28.134Z,1282.50
2019-04-06T11:10:27.902Z,1485.00
2019-04-06T11:11:27.833Z,1951.88
2019-04-06T11:12:27.829Z,2160.00
2019-04-06T11:13:27.810Z,2002.50
2019-04-06T11:14:27.827Z,2098.12
2019-04-06T11:15:27.805Z,2115.00
2019-04-06T11:16:27.791Z,2041.88
2019-04-06T11:17:27.772Z,2103.75
2019-04-06T11:18:27.767Z,1912.50
2019-04-06T11:19:28.161Z,1951.88
2019-04-06T11:20:27.786Z,1771.88
2019-04-06T11:21:27.749Z,1434.38
2019-04-06T11:22:27.729Z,1665.00
2019-04-06T11:23:27.742Z,2103.75
2019-04-06T11:24:27.704Z,2193.75
2019-04-06T11:25:27.857Z,2182.50
2019-04-06T11:26:27.683Z,2070.00
2019-04-06T11:27:27.758Z,1963.12
2019-04-06T11:28:27.676Z,1749.38
2019-04-06T11:29:27.654Z,1546.88
2019-04-06T11:30:27.925Z,1530.00
2019-04-06T11:31:27.853Z,1496.25
2019-04-06T11:32:27.627Z,1614.38
2019-04-06T11:33:27.862Z,1980.00
2019-04-06T11:34:27.607Z,2278.12
2019-04-06T11:35:27.609Z,2334.38
2019-04-06T11:36:27.589Z,2244.38
2019-04-06T11:37:27.626Z,2233.12
2019-04-06T11:38:27.735Z,2255.62
2019-04-06T11:39:27.698Z,2160.00
2019-04-06T11:40:27.546Z,2227.50
2019-04-06T11:41:27.693Z,2356.88
2019-04-06T11:42:27.528Z,2143.12
2019-04-06T11:43:27.601Z,1980.00
2019-04-06T11:44:27.802Z,2098.12
2019-04-06T11:45:27.505Z,2171.25
2019-04-06T11:46:27.649Z,2131.88
2019-04-06T11:47:27.492Z,2058.75
2019-04-06T11:48:27.470Z,2098.12
2019-04-06T11:49:27.617Z,2176.88
2019-04-06T11:50:27.455Z,2120.62
2019-04-06T11:51:27.570Z,2182.50
2019-04-06T11:52:27.434Z,2165.62
2019-04-06T11:53:27.421Z,1963.12
2019-04-06T11:54:27.415Z,1895.62
2019-04-06T11:55:27.413Z,2148.75
2019-04-06T11:56:27.399Z,2216.25
2019-04-06T11:57:27.396Z,2075.62
2019-04-06T11:58:27.376Z,2081.25
2019-04-06T11:59:27.363Z,2092.50
2019-04-06T12:00:28.123Z,2098.12
2019-04-06T12:01:27.599Z,2070.00
2019-04-06T12:02:27.363Z,2154.38
2019-04-06T12:03:27.327Z,2306.25
2019-04-06T12:04:27.546Z,2250.00
2019-04-06T12:05:27.335Z,2092.50
2019-04-06T12:06:27.379Z,1951.88
2019-04-06T12:07:27.290Z,2064.38
2019-04-06T12:08:27.292Z,2047.50
2019-04-06T12:09:27.309Z,2103.75
2019-04-06T12:10:27.332Z,2131.88
2019-04-06T12:11:27.253Z,2064.38
2019-04-06T12:12:27.236Z,2098.12
2019-04-06T12:13:27.233Z,2081.25
2019-04-06T12:14:27.232Z,1940.62
2019-04-06T12:15:27.335Z,1912.50
2019-04-06T12:16:27.201Z,2002.50
2019-04-06T12:17:27.191Z,2081.25
2019-04-06T12:18:27.264Z,2205.00
2019-04-06T12:19:27.409Z,2148.75
2019-04-06T12:20:27.187Z,1985.62
2019-04-06T12:21:27.513Z,2160.00
2019-04-06T12:22:34.715Z,2126.25
2019-04-06T12:23:27.393Z,2227.50
2019-04-06T12:24:27.123Z,2255.62
2019-04-06T12:25:27.139Z,2008.12
2019-04-06T12:26:27.182Z,2103.75
2019-04-06T12:27:27.441Z,2227.50
2019-04-06T12:28:27.080Z,2233.12
2019-04-06T12:29:27.066Z,2137.50
2019-04-06T12:30:36.952Z,1794.38
2019-04-06T12:31:28.043Z,1788.75
2019-04-06T12:32:27.035Z,1822.50
2019-04-06T12:33:27.024Z,1906.88
2019-04-06T12:34:27.126Z,2025.00
2019-04-06T12:35:27.009Z,2081.25
2019-04-06T12:36:27.392Z,1901.25
2019-04-06T12:37:27.159Z,1895.62
2019-04-06T12:38:26.979Z,1923.75
2019-04-06T12:39:26.967Z,1895.62
2019-04-06T12:40:26.959Z,1946.25
2019-04-06T12:41:27.040Z,2070.00
2019-04-06T12:42:34.003Z,2115.00
2019-04-06T12:43:26.931Z,2075.62
2019-04-06T12:44:26.913Z,2013.75
2019-04-06T12:45:34.792Z,1923.75
2019-04-06T12:46:26.930Z,1850.62